Time;durP1;ratioP1;P1;durP2;ratioP2;P2;SDS_P1;SDS_P2;PMS_P1;PMS_P2;Temp;Humidity;BMP_temperature;BMP_pressure;BME280_temperature;BME280_humidity;BME280_pressure;Samples;Min_cycle;Max_cycle;Signal;HPM_P1;HPM_P2
2023/10/08 00:00:55;;;;;;;4.00;2.93;;;20.60;99.90;;;;;;5102843;28;20483;-87
2023/10/08 00:03:21;;;;;;;6.57;3.37;;;20.60;99.90;;;;;;5093231;28;20241;-87
2023/10/08 00:05:51;;;;;;;4.90;2.90;;;20.60;99.90;;;;;;5103588;28;20188;-87
2023/10/08 00:08:17;;;;;;;5.07;3.10;;;20.60;99.90;;;;;;5096325;28;20171;-87
2023/10/08 00:10:44;;;;;;;4.10;2.80;;;20.50;99.90;;;;;;5101073;28;20196;-87
2023/10/08 00:13:15;;;;;;;4.03;2.80;;;20.50;99.90;;;;;;5100070;28;20264;-87
2023/10/08 00:15:54;;;;;;;4.83;3.00;;;20.50;99.90;;;;;;5099195;28;20162;-87
2023/10/08 00:18:22;;;;;;;4.60;2.73;;;20.50;99.90;;;;;;5099681;28;20758;-87
2023/10/08 00:21:16;;;;;;;3.93;2.80;;;20.50;99.90;;;;;;5094778;28;20453;-87
2023/10/08 00:23:43;;;;;;;4.20;3.00;;;20.50;99.90;;;;;;5109117;28;20174;-87
2023/10/08 00:26:09;;;;;;;5.00;2.97;;;20.50;99.90;;;;;;5108173;28;20235;-87
2023/10/08 00:28:36;;;;;;;4.30;3.10;;;20.50;99.90;;;;;;5107960;28;20432;-87
2023/10/08 00:31:12;;;;;;;3.73;2.83;;;20.50;99.90;;;;;;5110226;28;20592;-87
2023/10/08 00:33:44;;;;;;;5.93;3.13;;;20.50;99.90;;;;;;5106819;28;20237;-87
2023/10/08 00:36:19;;;;;;;4.27;2.67;;;20.50;99.90;;;;;;5110430;28;20243;-87
2023/10/08 00:38:49;;;;;;;5.23;3.00;;;20.50;99.90;;;;;;5106713;28;20226;-87
2023/10/08 00:41:15;;;;;;;3.77;2.70;;;20.50;99.90;;;;;;5110247;28;20560;-87
2023/10/08 00:43:45;;;;;;;5.70;2.97;;;20.50;99.90;;;;;;5103605;28;20175;-87
2023/10/08 00:46:18;;;;;;;5.13;2.50;;;20.50;99.90;;;;;;5112756;28;20224;-87
2023/10/08 00:48:46;;;;;;;3.67;2.73;;;20.50;99.90;;;;;;5109813;28;20458;-87
2023/10/08 00:52:00;;;;;;;3.57;2.80;;;20.50;99.90;;;;;;5110789;28;20233;-87
2023/10/08 00:54:10;;;;;;;4.03;2.80;;;20.50;99.90;;;;;;5087608;28;20175;-87
2023/10/08 00:59:15;;;;;;;3.70;2.80;;;20.50;99.90;;;;;;5104747;28;20576;-87
2023/10/08 01:01:51;;;;;;;3.47;2.53;;;20.50;99.90;;;;;;5097201;28;20174;-87
2023/10/08 01:04:23;;;;;;;3.47;2.57;;;20.50;99.90;;;;;;5101068;28;20550;-87
2023/10/08 01:07:01;;;;;;;4.43;3.20;;;20.50;99.90;;;;;;5109263;28;20215;-87
2023/10/08 01:09:35;;;;;;;4.47;3.00;;;20.50;99.90;;;;;;5111646;28;20202;-87
2023/10/08 01:14:48;;;;;;;4.50;2.93;;;20.50;99.90;;;;;;5101342;28;20186;-87
2023/10/08 01:17:15;;;;;;;4.97;3.30;;;20.50;99.90;;;;;;5099205;28;20178;-87
2023/10/08 01:19:50;;;;;;;4.73;2.80;;;20.50;99.90;;;;;;5107346;28;20171;-87
2023/10/08 01:22:18;;;;;;;4.63;3.10;;;20.50;99.90;;;;;;5096259;28;20170;-87
2023/10/08 01:24:51;;;;;;;4.30;2.57;;;20.50;99.90;;;;;;5117054;28;20166;-87
2023/10/08 01:27:23;;;;;;;5.03;3.00;;;20.40;99.90;;;;;;5118069;28;20170;-87
2023/10/08 01:29:50;;;;;;;3.93;2.83;;;20.40;99.90;;;;;;5107628;28;20212;-87
2023/10/08 01:32:21;;;;;;;4.10;2.93;;;20.40;99.90;;;;;;5118245;28;20185;-87
2023/10/08 01:34:47;;;;;;;3.70;2.80;;;20.40;99.90;;;;;;5115174;28;20242;-87
2023/10/08 01:37:17;;;;;;;5.10;2.80;;;20.40;99.90;;;;;;5118892;28;20277;-87
2023/10/08 01:39:45;;;;;;;4.83;3.03;;;20.40;99.90;;;;;;5109248;28;20284;-87
2023/10/08 01:42:20;;;;;;;3.60;2.90;;;20.40;99.90;;;;;;5097101;28;20174;-87
2023/10/08 01:44:47;;;;;;;4.37;2.87;;;20.40;99.90;;;;;;5075037;28;20186;-87
2023/10/08 01:47:15;;;;;;;4.63;2.70;;;20.40;99.90;;;;;;5117071;28;20182;-87
2023/10/08 01:49:43;;;;;;;4.80;2.80;;;20.40;99.90;;;;;;5112055;28;20202;-87
2023/10/08 01:52:18;;;;;;;5.60;3.00;;;20.40;99.90;;;;;;5095268;28;20194;-87
2023/10/08 01:54:44;;;;;;;5.00;3.07;;;20.40;99.90;;;;;;5099784;28;20382;-87
2023/10/08 01:57:12;;;;;;;4.27;2.80;;;20.40;99.90;;;;;;5114948;28;20475;-87
2023/10/08 01:59:38;;;;;;;4.47;3.07;;;20.40;99.90;;;;;;5110182;28;20185;-87
2023/10/08 02:02:05;;;;;;;3.93;2.97;;;20.40;99.90;;;;;;5115499;28;20490;-87
2023/10/08 02:04:35;;;;;;;4.03;3.00;;;20.40;99.90;;;;;;5109570;28;20243;-87
2023/10/08 02:07:03;;;;;;;3.43;2.90;;;20.40;99.90;;;;;;5097398;28;20202;-87
2023/10/08 02:09:30;;;;;;;4.57;3.07;;;20.40;99.90;;;;;;5101898;28;20194;-87
2023/10/08 02:11:56;;;;;;;4.37;3.07;;;20.40;99.90;;;;;;5105228;28;20178;-87
2023/10/08 02:14:22;;;;;;;4.37;2.67;;;20.40;99.90;;;;;;5101241;28;20258;-87
2023/10/08 02:16:49;;;;;;;4.33;2.60;;;20.40;99.90;;;;;;5107509;28;20173;-87
2023/10/08 02:19:26;;;;;;;3.73;2.67;;;20.40;99.90;;;;;;5099943;28;20174;-87
2023/10/08 02:21:55;;;;;;;5.03;3.30;;;20.40;99.90;;;;;;5118135;28;20170;-88
2023/10/08 02:24:25;;;;;;;4.10;2.67;;;20.40;99.90;;;;;;5114773;28;20166;-87
2023/10/08 02:26:54;;;;;;;5.50;2.90;;;20.40;99.90;;;;;;5109980;28;20163;-87
2023/10/08 02:29:29;;;;;;;4.17;2.80;;;20.40;99.90;;;;;;5097898;28;20168;-87
2023/10/08 02:31:56;;;;;;;3.20;2.90;;;20.40;99.90;;;;;;5105311;28;20227;-87
2023/10/08 02:34:21;;;;;;;4.07;2.93;;;20.40;99.90;;;;;;5117071;28;20163;-87
2023/10/08 02:36:47;;;;;;;3.47;2.70;;;20.40;99.90;;;;;;5105728;28;20173;-87
2023/10/08 02:39:21;;;;;;;4.20;2.80;;;20.30;99.90;;;;;;5117479;28;20166;-87
2023/10/08 02:41:47;;;;;;;4.13;2.80;;;20.40;99.90;;;;;;5104157;28;20163;-87
2023/10/08 02:44:14;;;;;;;4.93;2.90;;;20.30;99.90;;;;;;5117819;28;20163;-87
2023/10/08 02:46:41;;;;;;;4.53;2.77;;;20.30;99.90;;;;;;5103422;28;20175;-87
2023/10/08 02:49:11;;;;;;;4.33;2.80;;;20.30;99.90;;;;;;5116961;28;20174;-87
2023/10/08 02:51:41;;;;;;;3.73;2.90;;;20.30;99.90;;;;;;5112291;28;20170;-87
2023/10/08 02:54:17;;;;;;;3.97;2.70;;;20.30;99.90;;;;;;5108837;28;20185;-87
2023/10/08 02:56:44;;;;;;;4.97;2.93;;;20.30;99.90;;;;;;5113521;28;20177;-87
2023/10/08 02:59:12;;;;;;;4.10;2.80;;;20.30;99.90;;;;;;5099146;28;20242;-87
2023/10/08 03:01:41;;;;;;;5.07;3.03;;;20.30;99.90;;;;;;5106751;28;20162;-87
2023/10/08 03:04:17;;;;;;;4.47;2.70;;;20.30;99.90;;;;;;5101158;28;20167;-87
2023/10/08 03:06:50;;;;;;;3.77;2.97;;;20.30;99.90;;;;;;5105580;28;20239;-87
2023/10/08 03:09:20;;;;;;;3.47;2.80;;;20.30;99.90;;;;;;5100970;28;20177;-87
2023/10/08 03:11:51;;;;;;;4.40;2.73;;;20.30;99.90;;;;;;5103932;28;20633;-87
2023/10/08 03:14:23;;;;;;;3.93;2.90;;;20.30;99.90;;;;;;5101500;28;20232;-87
2023/10/08 03:16:58;;;;;;;3.83;2.63;;;20.30;99.90;;;;;;5103066;28;20186;-87
2023/10/08 03:19:24;;;;;;;3.97;2.97;;;20.30;99.90;;;;;;5102295;28;20279;-87
2023/10/08 03:21:51;;;;;;;7.07;2.97;;;20.30;99.90;;;;;;5101334;28;20552;-87
2023/10/08 03:27:07;;;;;;;4.90;2.97;;;20.30;99.90;;;;;;5100028;28;20185;-87
2023/10/08 03:29:42;;;;;;;4.37;3.00;;;20.30;99.90;;;;;;5109184;28;20255;-87
2023/10/08 03:32:13;;;;;;;4.70;3.10;;;20.30;99.90;;;;;;5113020;28;20165;-87
2023/10/08 03:34:43;;;;;;;4.43;2.90;;;20.30;99.90;;;;;;5116441;28;20217;-87
2023/10/08 03:37:11;;;;;;;3.10;2.70;;;20.30;99.90;;;;;;5112588;28;20574;-87
2023/10/08 03:40:25;;;;;;;5.80;3.53;;;20.30;99.90;;;;;;5107837;28;20254;-87
2023/10/08 03:42:24;;;;;;;4.00;2.97;;;20.30;99.90;;;;;;5107325;28;20173;-87
2023/10/08 03:44:52;;;;;;;5.33;3.03;;;20.30;99.90;;;;;;5107482;28;20166;-87
2023/10/08 03:47:26;;;;;;;4.57;3.13;;;20.30;99.90;;;;;;5114553;28;20270;-87
2023/10/08 03:49:53;;;;;;;4.37;3.00;;;20.30;99.90;;;;;;5095267;28;20711;-87
2023/10/08 03:52:23;;;;;;;4.10;2.90;;;20.30;99.90;;;;;;5098908;28;20159;-87
2023/10/08 03:55:02;;;;;;;4.17;2.93;;;20.30;99.90;;;;;;5102979;28;20652;-87
2023/10/08 03:57:41;;;;;;;4.23;2.90;;;20.30;99.90;;;;;;5097032;28;20173;-87
2023/10/08 04:00:31;;;;;;;4.93;3.03;;;20.20;99.90;;;;;;5106973;28;20788;-86
2023/10/08 04:03:07;;;;;;;4.17;2.77;;;20.20;99.90;;;;;;5114465;28;20201;-86
2023/10/08 04:05:44;;;;;;;5.43;3.23;;;20.20;99.90;;;;;;5107744;28;20176;-87
2023/10/08 04:08:34;;;;;;;4.57;3.10;;;20.20;99.90;;;;;;5113903;28;20227;-87
2023/10/08 04:11:20;;;;;;;4.67;2.97;;;20.20;99.90;;;;;;5109235;28;20214;-86
2023/10/08 04:13:48;;;;;;;7.00;3.17;;;20.20;99.90;;;;;;5103156;28;20174;-86
2023/10/08 04:16:18;;;;;;;6.00;3.27;;;20.20;99.90;;;;;;5103152;28;20438;-87
2023/10/08 04:18:46;;;;;;;3.50;2.93;;;20.20;99.90;;;;;;5101586;28;20553;-86
2023/10/08 04:21:12;;;;;;;4.37;2.97;;;20.20;99.90;;;;;;5097425;28;20171;-87
2023/10/08 04:23:44;;;;;;;4.20;3.00;;;20.20;99.90;;;;;;5099916;28;20188;-87
2023/10/08 04:26:10;;;;;;;6.30;3.50;;;20.20;99.90;;;;;;5106753;28;20540;-87
2023/10/08 04:28:37;;;;;;;5.20;3.07;;;20.20;99.90;;;;;;5113874;28;20170;-87
2023/10/08 04:31:14;;;;;;;5.23;3.40;;;20.20;99.90;;;;;;5102930;28;20209;-87
2023/10/08 04:33:44;;;;;;;4.27;2.90;;;20.20;99.90;;;;;;5114258;28;20618;-87
2023/10/08 04:36:17;;;;;;;4.77;2.97;;;20.20;99.90;;;;;;5103978;28;20190;-87
2023/10/08 04:38:45;;;;;;;4.97;3.30;;;20.20;99.90;;;;;;5115255;28;20170;-87
2023/10/08 04:41:11;;;;;;;6.47;3.47;;;20.20;99.90;;;;;;5105543;28;20205;-87
2023/10/08 04:43:42;;;;;;;6.30;3.37;;;20.20;99.90;;;;;;5096449;28;20265;-87
2023/10/08 04:46:54;;;;;;;4.30;3.03;;;20.20;99.90;;;;;;5108445;28;20269;-87
2023/10/08 04:48:55;;;;;;;4.70;2.90;;;20.20;99.90;;;;;;5093104;28;20202;-87
2023/10/08 04:51:22;;;;;;;3.33;3.03;;;20.20;99.90;;;;;;5112122;28;20277;-87
2023/10/08 04:53:48;;;;;;;5.83;3.40;;;20.20;99.90;;;;;;5098386;28;20171;-87
2023/10/08 04:56:17;;;;;;;4.53;3.37;;;20.20;99.90;;;;;;5112735;28;20174;-87
2023/10/08 04:58:47;;;;;;;5.37;3.40;;;20.20;99.90;;;;;;5098053;28;20263;-87
2023/10/08 05:01:17;;;;;;;5.27;3.40;;;20.20;99.90;;;;;;5109831;28;20182;-87
2023/10/08 05:09:12;;;;;;;4.80;3.10;;;20.20;99.90;;;;;;5099988;28;20166;-87
2023/10/08 05:19:48;;;;;;;5.87;3.30;;;20.20;99.90;;;;;;5100373;28;20521;-87
2023/10/08 05:22:18;;;;;;;4.37;3.30;;;20.20;99.90;;;;;;5106202;28;20223;-87
2023/10/08 05:25:07;;;;;;;5.40;3.40;;;20.20;99.90;;;;;;5116120;28;20206;-87
2023/10/08 05:27:56;;;;;;;4.37;3.17;;;20.20;99.90;;;;;;5106194;28;20299;-87
2023/10/08 05:33:06;;;;;;;5.50;3.33;;;20.20;99.90;;;;;;5104031;28;20201;-86
2023/10/08 06:02:29;;;;;;;4.63;3.23;;;20.10;99.90;;;;;;5111884;28;20174;-86
2023/10/08 06:07:48;;;;;;;4.13;3.00;;;20.10;99.90;;;;;;5109842;28;20564;-86
2023/10/08 06:13:19;;;;;;;5.70;3.23;;;20.10;99.90;;;;;;5100639;28;20175;-87
2023/10/08 06:18:28;;;;;;;5.00;3.30;;;20.10;99.90;;;;;;5104814;28;20154;-86
2023/10/08 06:20:58;;;;;;;6.57;4.10;;;20.10;99.90;;;;;;5096051;28;20167;-87
2023/10/08 06:23:25;;;;;;;4.60;3.43;;;20.10;99.90;;;;;;5105589;28;20177;-87
2023/10/08 06:25:58;;;;;;;4.67;3.03;;;20.10;99.90;;;;;;5099022;28;20202;-87
2023/10/08 06:28:26;;;;;;;4.73;3.50;;;20.10;99.90;;;;;;5101334;28;20182;-87
2023/10/08 06:30:54;;;;;;;4.67;3.37;;;20.10;99.90;;;;;;5112539;28;20221;-86
2023/10/08 06:33:22;;;;;;;4.80;3.07;;;20.10;99.90;;;;;;5110966;28;20231;-87
2023/10/08 06:36:13;;;;;;;5.30;3.07;;;20.10;99.90;;;;;;5110488;28;20299;-88
2023/10/08 06:38:38;;;;;;;5.00;3.47;;;20.10;99.90;;;;;;5108691;28;20427;-88
2023/10/08 06:43:38;;;;;;;4.57;3.23;;;20.10;99.90;;;;;;5111269;28;20187;-88
2023/10/08 06:46:07;;;;;;;7.80;3.70;;;20.10;99.90;;;;;;5108054;28;20185;-88
2023/10/08 06:48:34;;;;;;;4.57;3.17;;;20.10;99.90;;;;;;5113663;28;20162;-87
2023/10/08 06:51:12;;;;;;;4.80;3.43;;;20.10;99.90;;;;;;5104234;28;20212;-86
2023/10/08 06:53:46;;;;;;;5.00;3.67;;;20.00;99.90;;;;;;5110516;28;20175;-86
2023/10/08 06:56:16;;;;;;;4.33;3.07;;;20.00;99.90;;;;;;5104206;28;20194;-86
2023/10/08 06:58:48;;;;;;;4.93;3.50;;;20.00;99.90;;;;;;5097003;28;20181;-86
2023/10/08 07:01:24;;;;;;;4.10;3.13;;;20.00;99.90;;;;;;5105197;28;20167;-86
2023/10/08 07:04:03;;;;;;;4.37;3.07;;;20.00;99.90;;;;;;5097090;28;20193;-86
2023/10/08 07:06:33;;;;;;;5.40;3.37;;;20.00;99.90;;;;;;5105256;28;20167;-87
2023/10/08 07:09:05;;;;;;;4.80;3.60;;;20.00;99.90;;;;;;5100328;28;20444;-87
2023/10/08 07:11:34;;;;;;;6.20;3.77;;;20.00;99.90;;;;;;5107492;28;20209;-87
2023/10/08 07:14:04;;;;;;;5.80;3.60;;;20.10;99.90;;;;;;5111431;28;20165;-87
2023/10/08 07:16:30;;;;;;;6.10;4.10;;;20.00;99.90;;;;;;5105046;28;20168;-87
2023/10/08 07:19:02;;;;;;;5.80;3.73;;;20.00;99.90;;;;;;5092891;28;20178;-86
2023/10/08 07:21:29;;;;;;;5.47;3.83;;;20.00;99.90;;;;;;5102275;28;20185;-87
2023/10/08 07:23:59;;;;;;;5.80;3.40;;;20.00;99.90;;;;;;5112286;28;20174;-87
2023/10/08 07:26:40;;;;;;;5.03;3.60;;;20.00;99.90;;;;;;5101390;28;20161;-87
2023/10/08 07:29:09;;;;;;;6.07;3.67;;;20.00;99.90;;;;;;5113723;28;20498;-87
2023/10/08 07:31:36;;;;;;;6.57;3.90;;;20.00;99.90;;;;;;5101009;28;20198;-87
2023/10/08 07:36:44;;;;;;;7.20;4.00;;;20.00;99.90;;;;;;5103876;28;20202;-87
2023/10/08 07:39:25;;;;;;;6.00;4.03;;;20.00;99.90;;;;;;5089726;28;20486;-87
2023/10/08 07:41:55;;;;;;;5.37;3.47;;;20.00;99.90;;;;;;5097609;28;20555;-87
2023/10/08 07:44:21;;;;;;;7.43;4.20;;;20.00;99.90;;;;;;5109977;28;20186;-87
2023/10/08 07:46:54;;;;;;;7.57;4.03;;;20.00;99.90;;;;;;5096822;28;20163;-87
2023/10/08 07:49:22;;;;;;;6.67;4.13;;;20.00;99.90;;;;;;5111857;28;20171;-87
2023/10/08 07:51:52;;;;;;;6.50;4.00;;;20.00;99.90;;;;;;5106594;28;20173;-87
2023/10/08 07:54:19;;;;;;;8.27;4.50;;;19.90;99.90;;;;;;5102730;28;20162;-87
2023/10/08 07:56:46;;;;;;;6.93;4.40;;;20.00;99.90;;;;;;5100067;28;20163;-87
2023/10/08 07:59:14;;;;;;;5.53;4.00;;;20.00;99.90;;;;;;5110846;28;20173;-87
2023/10/08 08:01:42;;;;;;;7.83;4.10;;;20.00;99.90;;;;;;5107380;28;20190;-87
2023/10/08 08:04:10;;;;;;;9.33;4.60;;;20.00;99.90;;;;;;5094967;28;20251;-87
2023/10/08 08:06:37;;;;;;;5.93;4.20;;;20.00;99.90;;;;;;5098606;28;20343;-87
2023/10/08 08:09:17;;;;;;;7.17;4.30;;;20.00;99.90;;;;;;5096314;28;20175;-87
2023/10/08 08:11:45;;;;;;;11.87;5.03;;;20.00;99.90;;;;;;5097307;28;20210;-87
2023/10/08 08:14:11;;;;;;;7.27;5.00;;;19.90;99.90;;;;;;5094411;28;20167;-87
2023/10/08 08:16:37;;;;;;;9.63;4.23;;;19.90;99.90;;;;;;5093449;28;20189;-86
2023/10/08 08:19:03;;;;;;;7.57;4.60;;;19.90;99.90;;;;;;5096677;28;20202;-87
2023/10/08 08:21:30;;;;;;;5.83;4.30;;;19.90;99.90;;;;;;5091213;28;20232;-86
2023/10/08 08:24:04;;;;;;;6.83;4.27;;;19.90;99.90;;;;;;5103609;28;20186;-87
2023/10/08 08:26:32;;;;;;;5.30;4.07;;;20.00;99.90;;;;;;5098281;28;20178;-87
2023/10/08 08:29:01;;;;;;;5.30;3.97;;;19.90;99.90;;;;;;5100942;28;20174;-87
2023/10/08 08:31:31;;;;;;;5.97;4.47;;;19.90;99.90;;;;;;5112798;28;20351;-87
2023/10/08 08:34:02;;;;;;;6.37;3.53;;;19.90;99.90;;;;;;5103019;28;20199;-87
2023/10/08 08:36:28;;;;;;;5.47;3.60;;;19.90;99.90;;;;;;5114541;28;20182;-87
2023/10/08 08:38:55;;;;;;;5.17;3.50;;;19.90;99.90;;;;;;5106152;28;20175;-86
2023/10/08 08:41:22;;;;;;;4.23;3.40;;;19.90;99.90;;;;;;5092278;28;20171;-87
2023/10/08 08:43:56;;;;;;;5.87;3.53;;;19.90;99.90;;;;;;5105406;28;20171;-87
2023/10/08 08:46:30;;;;;;;4.03;3.23;;;19.90;99.90;;;;;;5094797;28;20181;-87
2023/10/08 08:49:03;;;;;;;3.73;3.30;;;19.90;99.90;;;;;;5105686;28;20286;-87
2023/10/08 08:51:30;;;;;;;5.20;3.10;;;19.90;99.90;;;;;;5095486;28;20273;-87
2023/10/08 08:53:59;;;;;;;4.27;3.07;;;19.90;99.90;;;;;;5099538;28;20202;-87
2023/10/08 08:56:26;;;;;;;4.57;3.20;;;19.90;99.90;;;;;;5115166;28;20318;-87
2023/10/08 08:58:53;;;;;;;3.90;2.57;;;19.90;99.90;;;;;;5100301;28;20167;-88
2023/10/08 09:01:19;;;;;;;3.63;2.90;;;19.90;99.90;;;;;;5109511;28;20289;-87
2023/10/08 09:03:47;;;;;;;3.83;2.67;;;19.90;99.90;;;;;;5106875;28;20251;-87
2023/10/08 09:06:13;;;;;;;3.70;2.70;;;19.90;99.90;;;;;;5095295;28;20363;-87
2023/10/08 09:08:42;;;;;;;6.10;3.43;;;19.90;99.90;;;;;;5099459;28;20429;-87
2023/10/08 09:11:08;;;;;;;4.10;2.70;;;19.80;99.90;;;;;;5098602;28;20194;-87
2023/10/08 09:13:35;;;;;;;3.03;2.40;;;19.80;99.90;;;;;;5100547;28;20231;-87
2023/10/08 09:16:14;;;;;;;4.30;2.30;;;19.80;99.90;;;;;;5110999;28;20166;-87
2023/10/08 09:18:46;;;;;;;4.53;2.47;;;19.70;99.90;;;;;;5114624;28;20190;-88
2023/10/08 09:21:15;;;;;;;3.07;2.30;;;19.70;99.90;;;;;;5106042;28;20171;-88
2023/10/08 09:23:43;;;;;;;4.57;2.17;;;19.70;99.90;;;;;;5100447;28;20174;-87
2023/10/08 09:26:14;;;;;;;3.07;2.10;;;19.70;99.90;;;;;;5108745;28;20249;-87
2023/10/08 09:28:46;;;;;;;3.37;2.23;;;19.70;99.90;;;;;;5118012;28;20178;-87
2023/10/08 09:31:14;;;;;;;3.13;2.23;;;19.60;99.90;;;;;;5107582;28;20194;-88
2023/10/08 09:33:41;;;;;;;2.40;1.73;;;19.40;99.90;;;;;;5115513;28;20166;-89
2023/10/08 09:36:18;;;;;;;2.37;2.03;;;19.50;99.90;;;;;;5104859;28;20178;-88
2023/10/08 09:38:45;;;;;;;1.57;1.40;;;19.60;99.90;;;;;;5115147;28;20555;-89
2023/10/08 09:41:12;;;;;;;3.23;1.80;;;19.60;99.90;;;;;;5100086;28;20175;-88
2023/10/08 09:43:41;;;;;;;2.90;1.50;;;19.60;99.90;;;;;;5110208;28;20174;-88
2023/10/08 09:46:19;;;;;;;4.53;1.70;;;19.60;99.90;;;;;;5098273;28;20225;-88
2023/10/08 09:48:53;;;;;;;4.80;1.80;;;19.60;99.90;;;;;;5111948;28;20178;-87
2023/10/08 09:51:20;;;;;;;2.67;1.50;;;19.60;99.90;;;;;;5101027;28;20284;-86
2023/10/08 09:54:04;;;;;;;2.83;1.63;;;19.50;99.90;;;;;;5107287;27;20170;-86
2023/10/08 09:56:32;;;;;;;3.17;1.50;;;19.50;99.90;;;;;;5098063;28;20170;-88
2023/10/08 09:58:59;;;;;;;2.10;1.70;;;19.50;99.90;;;;;;5111696;28;20174;-87
2023/10/08 10:01:26;;;;;;;3.33;1.43;;;19.50;99.90;;;;;;5104758;28;20362;-87
2023/10/08 10:03:52;;;;;;;3.03;1.20;;;19.50;99.90;;;;;;5089726;28;20167;-86
2023/10/08 10:06:19;;;;;;;2.70;1.40;;;19.30;99.90;;;;;;5104278;28;20189;-87
2023/10/08 10:08:45;;;;;;;9.83;1.33;;;19.20;99.90;;;;;;5092186;28;20270;-87
2023/10/08 10:11:12;;;;;;;2.17;1.20;;;19.20;99.90;;;;;;5095834;28;20195;-87
2023/10/08 10:13:50;;;;;;;1.53;1.17;;;19.30;99.90;;;;;;5112547;28;20421;-88
2023/10/08 10:16:24;;;;;;;2.80;1.40;;;19.20;99.90;;;;;;5113820;28;20283;-88
2023/10/08 10:18:50;;;;;;;3.53;1.20;;;19.30;99.90;;;;;;5120896;28;20166;-88
2023/10/08 10:21:16;;;;;;;3.00;1.30;;;19.20;99.90;;;;;;5108836;28;20181;-88
2023/10/08 10:23:51;;;;;;;2.70;1.20;;;19.20;99.90;;;;;;5113690;28;20171;-88
2023/10/08 10:26:28;;;;;;;1.60;1.17;;;19.10;99.90;;;;;;5109831;28;20410;-89
2023/10/08 10:29:10;;;;;;;2.63;1.30;;;19.20;99.90;;;;;;5098790;28;20171;-88
2023/10/08 10:31:44;;;;;;;1.20;1.07;;;19.30;99.90;;;;;;5098384;28;20323;-88
2023/10/08 10:34:12;;;;;;;2.23;1.10;;;19.40;99.90;;;;;;5093352;28;20228;-89
2023/10/08 10:36:40;;;;;;;1.90;1.07;;;19.40;99.90;;;;;;5097716;28;20523;-88
2023/10/08 10:39:16;;;;;;;3.27;1.30;;;19.50;99.90;;;;;;5113194;28;20534;-88
2023/10/08 10:41:48;;;;;;;3.67;1.30;;;19.50;99.90;;;;;;5111178;28;20223;-88
2023/10/08 10:44:17;;;;;;;2.23;1.00;;;19.50;99.90;;;;;;5098240;28;20704;-87
2023/10/08 10:46:50;;;;;;;2.07;1.10;;;19.60;99.90;;;;;;5097345;28;20182;-87
2023/10/08 10:49:30;;;;;;;1.47;1.00;;;19.50;99.90;;;;;;5109959;28;20209;-88
2023/10/08 10:51:57;;;;;;;3.20;1.00;;;19.60;99.90;;;;;;5108918;28;20170;-89
2023/10/08 10:54:35;;;;;;;1.83;1.00;;;19.60;99.90;;;;;;5113668;28;20177;-88
2023/10/08 10:57:09;;;;;;;1.80;1.00;;;19.60;99.90;;;;;;5108280;28;20269;-89
2023/10/08 10:59:37;;;;;;;3.47;0.97;;;19.60;99.90;;;;;;5108048;28;20170;-88
2023/10/08 11:02:07;;;;;;;5.67;1.27;;;19.60;99.90;;;;;;5100085;28;20179;-87
2023/10/08 11:04:47;;;;;;;2.67;0.90;;;19.40;99.90;;;;;;5099457;28;20166;-86
2023/10/08 11:07:15;;;;;;;4.80;1.13;;;19.50;99.90;;;;;;5107222;28;20397;-88
2023/10/08 11:09:44;;;;;;;6.10;1.57;;;19.50;99.90;;;;;;5099342;28;20177;-88
2023/10/08 11:12:11;;;;;;;8.13;1.30;;;19.70;99.90;;;;;;5105395;28;20162;-88
2023/10/08 11:14:46;;;;;;;6.43;1.40;;;19.60;99.90;;;;;;5095923;28;20503;-87
2023/10/08 11:17:11;;;;;;;3.40;1.13;;;19.40;99.90;;;;;;5104645;28;20261;-88
2023/10/08 11:19:45;;;;;;;3.13;1.30;;;19.20;99.90;;;;;;5103600;28;20245;-87
2023/10/08 11:22:18;;;;;;;2.47;1.00;;;18.80;99.90;;;;;;5093034;28;21182;-88
2023/10/08 11:24:53;;;;;;;4.47;1.30;;;18.90;99.90;;;;;;5103225;28;20277;-88
2023/10/08 11:27:28;;;;;;;2.53;1.00;;;18.50;99.90;;;;;;5095289;28;20171;-88
2023/10/08 11:29:59;;;;;;;5.27;1.13;;;18.60;99.90;;;;;;5105920;28;20549;-89
2023/10/08 11:32:27;;;;;;;4.00;1.30;;;18.00;99.90;;;;;;5091777;28;20196;-87
2023/10/08 11:34:56;;;;;;;6.00;1.87;;;18.40;99.90;;;;;;5101601;28;20180;-87
2023/10/08 11:37:36;;;;;;;4.90;1.40;;;18.40;99.90;;;;;;5089056;28;20262;-86
2023/10/08 11:40:17;;;;;;;8.33;1.20;;;18.80;99.90;;;;;;5094993;28;20170;-88
2023/10/08 11:42:43;;;;;;;3.30;1.33;;;19.10;99.90;;;;;;5106424;28;20173;-88
2023/10/08 11:45:24;;;;;;;10.97;1.50;;;19.30;99.90;;;;;;5107362;28;20182;-88
2023/10/08 11:47:57;;;;;;;11.90;1.67;;;19.40;99.90;;;;;;5111148;28;20281;-89
2023/10/08 11:50:35;;;;;;;6.20;1.47;;;19.20;99.90;;;;;;5103908;28;20519;-89
2023/10/08 11:53:05;;;;;;;11.23;1.60;;;19.20;99.90;;;;;;5087565;28;20424;-88
2023/10/08 11:55:35;;;;;;;6.93;1.30;;;19.30;99.90;;;;;;5101819;28;20163;-89
2023/10/08 11:58:12;;;;;;;6.00;1.43;;;19.40;99.90;;;;;;5088285;28;20254;-88
2023/10/08 12:00:52;;;;;;;6.93;1.43;;;19.30;99.90;;;;;;5109250;28;20185;-89
2023/10/08 12:03:18;;;;;;;7.00;1.50;;;19.20;99.90;;;;;;5110382;28;20298;-89
2023/10/08 12:05:48;;;;;;;13.17;1.60;;;19.10;99.90;;;;;;5099622;28;20167;-89
2023/10/08 12:08:18;;;;;;;7.87;1.37;;;19.30;99.90;;;;;;5088644;28;20171;-89
2023/10/08 12:10:48;;;;;;;4.17;1.13;;;19.10;99.90;;;;;;5101510;28;20293;-86
2023/10/08 12:13:18;;;;;;;4.97;1.60;;;18.60;99.90;;;;;;5088762;28;20163;-86
2023/10/08 12:15:44;;;;;;;2.07;0.93;;;18.80;99.90;;;;;;5104842;28;20206;-89
2023/10/08 12:18:26;;;;;;;2.70;0.90;;;18.60;99.90;;;;;;5112177;28;20181;-87
2023/10/08 12:20:53;;;;;;;2.70;1.00;;;18.40;99.90;;;;;;5100753;28;20187;-88
2023/10/08 12:23:29;;;;;;;4.20;1.03;;;17.90;99.90;;;;;;5113137;28;20221;-89
2023/10/08 12:25:57;;;;;;;4.17;1.13;;;18.30;99.90;;;;;;5109506;28;20285;-89
2023/10/08 12:28:34;;;;;;;1.97;1.27;;;18.70;99.90;;;;;;5094485;28;20423;-88
2023/10/08 12:31:00;;;;;;;3.70;1.33;;;19.00;99.90;;;;;;5096433;28;20259;-88
2023/10/08 12:33:28;;;;;;;4.20;1.50;;;18.90;99.90;;;;;;5111252;28;20197;-88
2023/10/08 12:35:55;;;;;;;4.03;1.33;;;18.80;99.90;;;;;;5098948;28;20193;-90
2023/10/08 12:38:22;;;;;;;5.70;1.40;;;19.00;99.90;;;;;;5112041;28;20169;-89
2023/10/08 12:40:52;;;;;;;2.77;1.43;;;19.00;99.90;;;;;;5108014;28;20174;-89
2023/10/08 12:43:26;;;;;;;3.67;1.37;;;18.70;99.90;;;;;;5096783;28;20173;-89
2023/10/08 12:45:54;;;;;;;2.10;1.10;;;18.60;99.90;;;;;;5093137;28;20183;-89
2023/10/08 12:48:29;;;;;;;4.17;1.40;;;18.70;99.90;;;;;;5091721;28;20173;-88
2023/10/08 12:50:58;;;;;;;3.20;1.50;;;18.10;99.90;;;;;;5094708;28;20207;-89
2023/10/08 12:53:36;;;;;;;3.67;2.00;;;18.10;99.90;;;;;;5100423;28;20588;-89
2023/10/08 12:56:15;;;;;;;3.20;1.67;;;18.10;99.90;;;;;;5093600;28;20163;-89
2023/10/08 12:58:48;;;;;;;3.50;1.60;;;18.40;99.90;;;;;;5104339;28;20279;-89
2023/10/08 13:01:17;;;;;;;2.73;1.60;;;18.40;99.90;;;;;;5098875;28;20269;-89
2023/10/08 13:03:49;;;;;;;4.70;1.50;;;18.40;99.90;;;;;;5097926;28;20183;-89
2023/10/08 13:06:22;;;;;;;5.60;2.03;;;18.40;99.90;;;;;;5101378;28;20178;-88
2023/10/08 13:08:52;;;;;;;4.97;1.97;;;18.00;99.90;;;;;;5101194;28;20187;-88
2023/10/08 13:11:22;;;;;;;4.90;1.90;;;17.80;99.90;;;;;;5109355;28;20209;-88
2023/10/08 13:13:58;;;;;;;4.30;2.50;;;17.80;99.90;;;;;;5104221;28;20203;-89
2023/10/08 13:16:31;;;;;;;3.60;2.13;;;17.80;99.90;;;;;;5106559;28;20166;-88
2023/10/08 13:18:58;;;;;;;4.13;2.20;;;18.00;99.90;;;;;;5102434;28;20208;-88
2023/10/08 13:21:28;;;;;;;4.47;2.20;;;18.10;99.90;;;;;;5111313;28;20662;-88
2023/10/08 13:23:57;;;;;;;5.03;2.27;;;18.20;99.90;;;;;;5105751;28;20473;-88
2023/10/08 13:26:24;;;;;;;4.10;2.40;;;18.50;99.90;;;;;;5110163;28;20182;-88
2023/10/08 13:28:50;;;;;;;3.63;2.23;;;18.70;99.90;;;;;;5100036;28;20234;-89
2023/10/08 13:31:19;;;;;;;5.87;4.03;;;18.90;99.90;;;;;;5109795;28;20457;-88
2023/10/08 13:33:48;;;;;;;5.37;2.33;;;18.90;99.90;;;;;;5104420;28;20257;-89
2023/10/08 13:36:15;;;;;;;4.33;2.70;;;19.00;99.90;;;;;;5090528;28;20211;-88
2023/10/08 13:38:41;;;;;;;4.83;2.20;;;19.10;99.90;;;;;;5103373;28;20167;-89
2023/10/08 13:41:17;;;;;;;3.10;2.30;;;19.00;99.90;;;;;;5091020;28;20422;-86
2023/10/08 13:43:45;;;;;;;5.20;3.03;;;19.20;99.90;;;;;;5104161;28;20952;-86
2023/10/08 13:46:13;;;;;;;3.43;2.40;;;19.00;99.90;;;;;;5088991;28;20170;-86
2023/10/08 13:48:46;;;;;;;5.23;3.00;;;19.00;99.90;;;;;;5103580;28;20170;-86
2023/10/08 13:51:15;;;;;;;3.47;2.50;;;19.10;99.90;;;;;;5088294;28;20194;-86
2023/10/08 13:53:45;;;;;;;3.97;2.67;;;19.30;99.90;;;;;;5098474;28;20166;-86
2023/10/08 13:56:11;;;;;;;4.17;2.53;;;19.40;99.90;;;;;;5088094;28;20170;-86
2023/10/08 13:58:45;;;;;;;3.20;2.50;;;19.50;99.90;;;;;;5095727;28;20571;-87
2023/10/08 14:01:21;;;;;;;3.13;2.47;;;19.50;99.90;;;;;;5089754;28;20202;-87
2023/10/08 14:03:53;;;;;;;5.27;2.40;;;19.60;99.90;;;;;;5097796;28;20173;-88
2023/10/08 14:06:21;;;;;;;4.73;3.60;;;19.60;99.90;;;;;;5095535;28;20413;-87
2023/10/08 14:08:54;;;;;;;4.23;2.83;;;19.40;99.90;;;;;;5099963;28;20227;-88